Jomi — C6VK4 — position and weather

sailwx.info

Track history (hours):
 
Tides and Currents Weather Stations Pressure Air Temp Water Temp Dewpoint Dewpoint Depression Visibility Wind Speed Wind Dir Waves Ship Positions

Jomi

Last reported at 2014-Oct-02 15:31 UTC. Time now 2014-Oct-02 16:35 UTC.
Position N 55°14' E 019°11'.

Length 88 m; draft 4.1 m.

Type: Cargo ship. MMSI: 309701000.

Date/timePositionNaut miles runAvg speedWind from/ knotsBaromVisibWave heightAir tempDewpointWater temp
2014-Oct-02 15:31N 55°14' E 019°11'1010.3
2014-Oct-02 14:33N 55°04' E 019°14'1010.2
2014-Oct-02 13:33N 54°54' E 019°18'10 9.8
2014-Oct-02 12:33N 54°47' E 019°30'1010.3
2014-Oct-02 11:33N 54°42' E 019°45'8 8.4
2014-Oct-02 10:33N 54°38' E 019°58'8 8.4
2014-Oct-02 09:33N 54°41' E 020°12'9 8.5
2014-Oct-02 08:33N 54°42' E 020°27'1 1.0
2014-Oct-02 07:26N 54°42' E 020°29'0 0.0
2014-Oct-02 02:27N 54°42' E 020°29'0 0.0
2014-Sep-30 16:08N 54°42' E 020°28'12 6.5
2014-Sep-30 14:18N 54°40' E 020°08'6 7.8
2014-Sep-30 13:33N 54°38' E 019°59'6 5.8
2014-Sep-30 12:34N 54°40' E 019°49'1 0.8
2014-Sep-30 11:31N 54°39' E 019°49'0 0.0
2014-Sep-30 09:19N 54°39' E 019°49'0 0.0
2014-Sep-30 08:31N 54°39' E 019°49'0 0.0
2014-Sep-30 07:31N 54°39' E 019°49'0 0.0
2014-Sep-30 06:16N 54°39' E 019°49'0 0.0
2014-Sep-30 05:28N 54°39' E 019°49'0 0.0
2014-Sep-30 04:25N 54°39' E 019°49'5 5.3
2014-Sep-30 03:33N 54°41' E 019°41'9 8.7
2014-Sep-30 02:33N 54°44' E 019°27'9 8.8
2014-Sep-30 01:33N 54°48' E 019°13'9 9.0
2014-Sep-30 00:33N 54°51' E 018°59'9 8.8
2014-Sep-29 23:33N 54°54' E 018°44'9 8.6
2014-Sep-29 22:33N 54°55' E 018°30'9 8.6
2014-Sep-29 21:33N 54°55' E 018°15'9 8.5
2014-Sep-29 20:32N 54°56' E 017°60'8 8.5
2014-Sep-29 19:33N 54°56' E 017°45'11 8.5
2014-Sep-29 18:14N 54°56' E 017°26'14 8.3
2014-Sep-29 16:32N 54°56' E 017°01'8 8.4
2014-Sep-29 15:33N 54°57' E 016°47'9 8.4
2014-Sep-29 14:28N 54°57' E 016°31'8 8.6
2014-Sep-29 13:31N 54°57' E 016°17'8 8.5
2014-Sep-29 12:33N 54°57' E 016°03'9 8.6
2014-Sep-29 11:33N 54°57' E 015°47'9 8.4
2014-Sep-29 10:30N 54°57' E 015°32'11 8.7
2014-Sep-29 09:12N 54°58' E 015°12'6 9.0
2014-Sep-29 08:33N 54°58' E 015°02'1110.5
2014-Sep-29 07:33N 54°58' E 014°44'1010.4
2014-Sep-29 06:33N 54°60' E 014°26'1010.4
2014-Sep-29 05:34N 55°02' E 014°09'1110.1
2014-Sep-29 04:28N 55°06' E 013°50'1010.1
2014-Sep-29 03:29N 55°08' E 013°34'1410.3
2014-Sep-29 02:05N 55°12' E 013°09'610.3
2014-Sep-29 01:33N 55°14' E 012°60'1010.1
2014-Sep-29 00:32N 55°17' E 012°43'8 8.2
2014-Sep-28 23:33N 55°25' E 012°40'1010.4
2014-Sep-28 22:33N 55°35' E 012°42'1110.6
2014-Sep-28 21:33N 55°46' E 012°41'1010.0
2014-Sep-28 20:33N 55°56' E 012°38'10 9.9
2014-Sep-28 19:33N 56°05' E 012°34'1110.5
2014-Sep-28 18:33N 56°14' E 012°22'1111.0
2014-Sep-28 17:33N 56°23' E 012°12'1110.9
2014-Sep-28 16:33N 56°32' E 012°02'1110.5
2014-Sep-28 15:32N 56°42' E 011°53'1111.0
2014-Sep-28 14:32N 56°52' E 011°47'1211.0
2014-Sep-28 13:25N 57°04' E 011°39'1011.0
2014-Sep-28 12:29N 57°14' E 011°33'1010.7
2014-Sep-28 11:33N 57°23' E 011°26'1010.2
2014-Sep-28 10:33N 57°31' E 011°15'1110.9
2014-Sep-28 09:33N 57°38' E 010°60'1310.6
2014-Sep-28 08:19N 57°47' E 010°41'4511.1
2014-Sep-28 04:17N 57°51' E 009°17'910.8
2014-Sep-28 03:26N 57°51' E 009°00'8410.3
2014-Sep-27 19:16N 58°07' E 006°24'7 9.7
2014-Sep-27 18:33N 58°12' E 006°14'1110.9
2014-Sep-27 17:33N 58°19' E 005°59'1111.0
2014-Sep-27 16:33N 58°27' E 005°43'2110.2
2014-Sep-27 14:30N 58°44' E 005°20'9 9.7
2014-Sep-27 13:33N 58°51' E 005°09'1010.0
2014-Sep-27 12:32N 58°59' E 004°57'  
Track history (hours):
 
Tides and Currents Weather Stations Pressure Air Temp Water Temp Dewpoint Dewpoint Depression Visibility Wind Speed Wind Dir Waves Ship Positions

Jomi

Last reported at 2014-Oct-02 15:31 UTC. Time now 2014-Oct-02 16:35 UTC.
Position N 55°14' E 019°11'.

Length 88 m; draft 4.1 m.

Type: Cargo ship. MMSI: 309701000.

Date/timePositionNaut miles runAvg speedWind from/ knotsBaromVisibWave heightAir tempDewpointWater temp
2014-Oct-02 15:31N 55°14' E 019°11'1010.3
2014-Oct-02 14:33N 55°04' E 019°14'1010.2
2014-Oct-02 13:33N 54°54' E 019°18'10 9.8
2014-Oct-02 12:33N 54°47' E 019°30'1010.3
2014-Oct-02 11:33N 54°42' E 019°45'8 8.4
2014-Oct-02 10:33N 54°38' E 019°58'8 8.4
2014-Oct-02 09:33N 54°41' E 020°12'9 8.5
2014-Oct-02 08:33N 54°42' E 020°27'1 1.0
2014-Oct-02 07:26N 54°42' E 020°29'0 0.0
2014-Oct-02 02:27N 54°42' E 020°29'0 0.0
2014-Sep-30 16:08N 54°42' E 020°28'12 6.5
2014-Sep-30 14:18N 54°40' E 020°08'6 7.8
2014-Sep-30 13:33N 54°38' E 019°59'6 5.8
2014-Sep-30 12:34N 54°40' E 019°49'1 0.8
2014-Sep-30 11:31N 54°39' E 019°49'0 0.0
2014-Sep-30 09:19N 54°39' E 019°49'0 0.0
2014-Sep-30 08:31N 54°39' E 019°49'0 0.0
2014-Sep-30 07:31N 54°39' E 019°49'0 0.0
2014-Sep-30 06:16N 54°39' E 019°49'0 0.0
2014-Sep-30 05:28N 54°39' E 019°49'0 0.0
2014-Sep-30 04:25N 54°39' E 019°49'5 5.3
2014-Sep-30 03:33N 54°41' E 019°41'9 8.7
2014-Sep-30 02:33N 54°44' E 019°27'9 8.8
2014-Sep-30 01:33N 54°48' E 019°13'9 9.0
2014-Sep-30 00:33N 54°51' E 018°59'9 8.8
2014-Sep-29 23:33N 54°54' E 018°44'9 8.6
2014-Sep-29 22:33N 54°55' E 018°30'9 8.6
2014-Sep-29 21:33N 54°55' E 018°15'9 8.5
2014-Sep-29 20:32N 54°56' E 017°60'8 8.5
2014-Sep-29 19:33N 54°56' E 017°45'11 8.5
2014-Sep-29 18:14N 54°56' E 017°26'14 8.3
2014-Sep-29 16:32N 54°56' E 017°01'8 8.4
2014-Sep-29 15:33N 54°57' E 016°47'9 8.4
2014-Sep-29 14:28N 54°57' E 016°31'8 8.6
2014-Sep-29 13:31N 54°57' E 016°17'8 8.5
2014-Sep-29 12:33N 54°57' E 016°03'9 8.6
2014-Sep-29 11:33N 54°57' E 015°47'9 8.4
2014-Sep-29 10:30N 54°57' E 015°32'11 8.7
2014-Sep-29 09:12N 54°58' E 015°12'6 9.0
2014-Sep-29 08:33N 54°58' E 015°02'1110.5
2014-Sep-29 07:33N 54°58' E 014°44'1010.4
2014-Sep-29 06:33N 54°60' E 014°26'1010.4
2014-Sep-29 05:34N 55°02' E 014°09'1110.1
2014-Sep-29 04:28N 55°06' E 013°50'1010.1
2014-Sep-29 03:29N 55°08' E 013°34'1410.3
2014-Sep-29 02:05N 55°12' E 013°09'610.3
2014-Sep-29 01:33N 55°14' E 012°60'1010.1
2014-Sep-29 00:32N 55°17' E 012°43'8 8.2
2014-Sep-28 23:33N 55°25' E 012°40'1010.4
2014-Sep-28 22:33N 55°35' E 012°42'1110.6
2014-Sep-28 21:33N 55°46' E 012°41'1010.0
2014-Sep-28 20:33N 55°56' E 012°38'10 9.9
2014-Sep-28 19:33N 56°05' E 012°34'1110.5
2014-Sep-28 18:33N 56°14' E 012°22'1111.0
2014-Sep-28 17:33N 56°23' E 012°12'1110.9
2014-Sep-28 16:33N 56°32' E 012°02'1110.5
2014-Sep-28 15:32N 56°42' E 011°53'1111.0
2014-Sep-28 14:32N 56°52' E 011°47'1211.0
2014-Sep-28 13:25N 57°04' E 011°39'1011.0
2014-Sep-28 12:29N 57°14' E 011°33'1010.7
2014-Sep-28 11:33N 57°23' E 011°26'1010.2
2014-Sep-28 10:33N 57°31' E 011°15'1110.9
2014-Sep-28 09:33N 57°38' E 010°60'1310.6
2014-Sep-28 08:19N 57°47' E 010°41'4511.1
2014-Sep-28 04:17N 57°51' E 009°17'910.8
2014-Sep-28 03:26N 57°51' E 009°00'8410.3
2014-Sep-27 19:16N 58°07' E 006°24'7 9.7
2014-Sep-27 18:33N 58°12' E 006°14'1110.9
2014-Sep-27 17:33N 58°19' E 005°59'1111.0
2014-Sep-27 16:33N 58°27' E 005°43'2110.2
2014-Sep-27 14:30N 58°44' E 005°20'9 9.7
2014-Sep-27 13:33N 58°51' E 005°09'1010.0
2014-Sep-27 12:32N 58°59' E 004°57'  

Dump ship's entire track history